Time;durP1;ratioP1;P1;durP2;ratioP2;P2;SDS_P1;SDS_P2;PMS_P1;PMS_P2;Temp;Humidity;BMP_temperature;BMP_pressure;BME280_temperature;BME280_humidity;BME280_pressure;Samples;Min_cycle;Max_cycle;Signal;HPM_P1;HPM_P2
2021/08/15 00:00:41;;;;;;;1999.90;999.90;;;18.60;99.90;;;;;;5044224;28;20208;-69
2021/08/15 00:03:08;;;;;;;1999.90;999.90;;;18.60;99.90;;;;;;5043876;28;20588;-69
2021/08/15 00:05:34;;;;;;;1999.90;999.90;;;18.50;99.90;;;;;;5042794;28;20448;-71
2021/08/15 00:07:59;;;;;;;1999.90;999.90;;;18.50;99.90;;;;;;5044188;28;20421;-70
2021/08/15 00:10:25;;;;;;;1999.90;999.90;;;18.40;99.90;;;;;;5043037;28;20560;-69
2021/08/15 00:12:51;;;;;;;1999.90;999.90;;;18.40;99.90;;;;;;5043129;28;20193;-71
2021/08/15 00:15:16;;;;;;;1999.90;999.90;;;18.40;99.90;;;;;;5043829;28;20172;-71
2021/08/15 00:17:42;;;;;;;1999.90;999.90;;;18.30;99.90;;;;;;5044564;28;20175;-71
2021/08/15 00:20:10;;;;;;;1999.90;999.90;;;18.30;99.90;;;;;;5045273;28;20196;-71
2021/08/15 00:22:40;;;;;;;1999.90;999.90;;;18.20;99.90;;;;;;5045110;28;20449;-70
2021/08/15 00:25:09;;;;;;;1999.90;999.90;;;18.10;99.90;;;;;;5044506;28;20368;-71
2021/08/15 00:27:35;;;;;;;1999.90;999.90;;;18.00;99.90;;;;;;5044787;28;20411;-71
2021/08/15 00:30:01;;;;;;;1999.90;999.90;;;17.90;99.90;;;;;;5039680;28;20427;-69
2021/08/15 00:32:26;;;;;;;1999.90;999.90;;;17.90;99.90;;;;;;5033316;28;20425;-70
2021/08/15 00:34:52;;;;;;;1999.90;999.90;;;17.90;99.90;;;;;;5033213;28;20508;-70
2021/08/15 00:37:18;;;;;;;1999.90;999.90;;;17.90;99.90;;;;;;5033467;28;20247;-70
2021/08/15 00:39:43;;;;;;;1999.90;999.90;;;18.00;99.90;;;;;;5038443;28;20259;-71
2021/08/15 00:42:09;;;;;;;1999.90;999.90;;;17.90;99.90;;;;;;5045907;28;20175;-71
2021/08/15 00:44:35;;;;;;;1999.90;999.90;;;17.90;99.90;;;;;;5045407;28;20174;-71
2021/08/15 00:47:01;;;;;;;1999.90;999.90;;;17.90;99.90;;;;;;5044844;28;20407;-71
2021/08/15 00:49:26;;;;;;;1999.90;999.90;;;17.80;99.90;;;;;;5045120;28;20174;-71
2021/08/15 00:51:52;;;;;;;1999.90;999.90;;;17.70;99.90;;;;;;5044848;28;20424;-70
2021/08/15 00:54:19;;;;;;;1999.90;999.90;;;17.70;99.90;;;;;;5042782;28;20216;-71
2021/08/15 00:56:54;;;;;;;1999.90;999.90;;;17.70;99.90;;;;;;5043321;28;20184;-71
2021/08/15 00:59:21;;;;;;;1999.90;999.90;;;17.60;99.90;;;;;;5042937;28;20436;-71
2021/08/15 01:01:51;;;;;;;1999.90;999.90;;;17.70;99.90;;;;;;5042269;28;20408;-71
2021/08/15 01:04:17;;;;;;;1999.90;999.90;;;17.60;99.90;;;;;;5042660;28;20437;-70
2021/08/15 01:06:43;;;;;;;1999.90;999.90;;;17.60;99.90;;;;;;5025761;28;20414;-71
2021/08/15 01:09:08;;;;;;;1999.90;999.90;;;17.50;99.90;;;;;;5043522;28;20400;-71
2021/08/15 01:11:35;;;;;;;1999.90;999.90;;;17.50;99.90;;;;;;5043385;28;20226;-71
2021/08/15 01:14:06;;;;;;;1999.90;999.90;;;17.50;99.90;;;;;;5042848;28;20195;-71
2021/08/15 01:16:32;;;;;;;1999.90;999.90;;;17.50;99.90;;;;;;5042290;28;20397;-71
2021/08/15 01:18:58;;;;;;;1999.90;999.90;;;17.50;99.90;;;;;;5043214;28;20408;-71
2021/08/15 01:21:24;;;;;;;1999.90;999.90;;;17.50;99.90;;;;;;5043441;28;20486;-70
2021/08/15 01:23:49;;;;;;;1999.90;999.90;;;17.50;99.90;;;;;;5043010;28;20193;-71
2021/08/15 01:26:20;;;;;;;1999.90;999.90;;;17.60;99.90;;;;;;5045122;28;20411;-71
2021/08/15 01:28:47;;;;;;;1999.90;999.90;;;17.50;99.90;;;;;;5043909;28;20173;-71
2021/08/15 01:31:13;;;;;;;1999.90;999.90;;;17.50;99.90;;;;;;5042913;28;20411;-71
2021/08/15 01:33:40;;;;;;;1999.90;999.90;;;17.50;99.90;;;;;;5042664;28;20430;-71
2021/08/15 01:36:07;;;;;;;1999.90;999.90;;;17.60;99.90;;;;;;5043466;28;20420;-71
2021/08/15 01:38:35;;;;;;;1999.90;999.90;;;17.60;99.90;;;;;;5043893;28;20441;-71
2021/08/15 01:41:01;;;;;;;1999.90;999.90;;;17.50;99.90;;;;;;5043754;28;20456;-71
2021/08/15 01:43:28;;;;;;;1999.90;999.90;;;17.50;99.90;;;;;;5043100;28;20441;-71
2021/08/15 01:45:54;;;;;;;1999.90;999.90;;;17.50;99.90;;;;;;5043752;28;20169;-71
2021/08/15 01:48:21;;;;;;;1999.90;999.90;;;17.50;99.90;;;;;;5044157;28;20395;-71
2021/08/15 01:50:48;;;;;;;1999.90;999.90;;;17.50;99.90;;;;;;5043983;28;20410;-71
2021/08/15 01:53:17;;;;;;;1999.90;999.90;;;17.50;99.90;;;;;;5045932;28;20474;-70
2021/08/15 01:55:43;;;;;;;1999.90;999.90;;;17.40;99.90;;;;;;5045102;28;20433;-71
2021/08/15 01:58:10;;;;;;;1999.90;999.90;;;17.40;99.90;;;;;;5045383;28;20419;-71
2021/08/15 02:00:37;;;;;;;1999.90;999.90;;;17.40;99.90;;;;;;5045763;28;20211;-70
2021/08/15 02:03:03;;;;;;;1999.90;999.90;;;17.40;99.90;;;;;;5046459;28;20775;-71
2021/08/15 02:05:29;;;;;;;1999.90;999.90;;;17.40;99.90;;;;;;5044214;28;20435;-71
2021/08/15 02:07:55;;;;;;;1999.90;999.90;;;17.50;99.90;;;;;;5035784;28;20412;-70
2021/08/15 02:10:28;;;;;;;1999.90;999.90;;;17.50;99.90;;;;;;5036318;28;20192;-71
2021/08/15 02:12:56;;;;;;;1999.90;999.90;;;17.50;99.90;;;;;;5045164;28;20191;-71
2021/08/15 02:15:21;;;;;;;1999.90;999.90;;;17.50;99.90;;;;;;5044198;28;20418;-71
2021/08/15 02:17:47;;;;;;;1999.90;999.90;;;17.50;99.90;;;;;;5036150;28;20491;-70
2021/08/15 02:20:18;;;;;;;1999.90;999.90;;;17.40;99.90;;;;;;5031828;28;20286;-70
2021/08/15 02:22:45;;;;;;;1999.90;999.90;;;17.40;99.90;;;;;;5031714;28;20208;-70
2021/08/15 02:25:13;;;;;;;1999.90;999.90;;;17.40;99.90;;;;;;5031530;28;20414;-70
2021/08/15 02:27:40;;;;;;;1999.90;999.90;;;17.40;99.90;;;;;;5031682;28;20415;-70
2021/08/15 02:30:07;;;;;;;1999.90;999.90;;;17.30;99.90;;;;;;5031715;28;20418;-70
2021/08/15 02:32:33;;;;;;;1999.90;999.90;;;17.30;99.90;;;;;;5031524;28;20933;-70
2021/08/15 02:34:59;;;;;;;1999.90;999.90;;;17.30;99.90;;;;;;5031623;28;20544;-70
2021/08/15 02:37:25;;;;;;;1999.90;999.90;;;17.30;99.90;;;;;;5034733;28;20181;-70
2021/08/15 02:39:52;;;;;;;1999.90;999.90;;;17.20;99.90;;;;;;5035622;28;20449;-70
2021/08/15 02:42:19;;;;;;;1999.90;999.90;;;17.20;99.90;;;;;;5035529;28;20305;-70
2021/08/15 02:44:45;;;;;;;1999.90;999.90;;;17.20;99.90;;;;;;5035169;28;20786;-70
2021/08/15 02:47:11;;;;;;;1999.90;999.90;;;17.30;99.90;;;;;;5035534;28;20491;-70
2021/08/15 02:49:42;;;;;;;1999.90;999.90;;;17.30;99.90;;;;;;5035425;28;20173;-70
2021/08/15 02:52:08;;;;;;;1999.90;999.90;;;17.30;99.90;;;;;;5035257;28;20415;-70
2021/08/15 02:54:36;;;;;;;1999.90;999.90;;;17.30;99.90;;;;;;5035138;28;20410;-70
2021/08/15 02:57:03;;;;;;;1999.90;999.90;;;17.30;99.90;;;;;;5035255;28;20627;-70
2021/08/15 02:59:29;;;;;;;1999.90;999.90;;;17.20;99.90;;;;;;5035318;28;20459;-70
2021/08/15 03:01:55;;;;;;;1999.90;999.90;;;17.20;99.90;;;;;;5035392;28;20509;-70
2021/08/15 03:04:20;;;;;;;1999.90;999.90;;;17.20;99.90;;;;;;5041756;28;20222;-69
2021/08/15 03:06:46;;;;;;;1999.90;999.90;;;17.10;99.90;;;;;;5035114;28;20711;-69
2021/08/15 03:09:12;;;;;;;1999.90;999.90;;;17.10;99.90;;;;;;5035204;28;20173;-70
2021/08/15 03:11:38;;;;;;;1999.90;999.90;;;17.00;99.90;;;;;;5035050;28;20162;-69
2021/08/15 03:14:03;;;;;;;1999.90;999.90;;;17.00;99.90;;;;;;5034649;28;20465;-72
2021/08/15 03:16:29;;;;;;;1999.90;999.90;;;17.00;99.90;;;;;;5035024;28;20625;-69
2021/08/15 03:18:54;;;;;;;1999.90;999.90;;;17.00;99.90;;;;;;5034945;28;20177;-69
2021/08/15 03:21:20;;;;;;;1999.90;999.90;;;16.90;99.90;;;;;;5034940;28;20206;-70
2021/08/15 03:23:46;;;;;;;1999.90;999.90;;;16.90;99.90;;;;;;5034585;28;20712;-70
2021/08/15 03:26:11;;;;;;;1999.90;999.90;;;16.90;99.90;;;;;;5034664;28;20175;-69
2021/08/15 03:28:37;;;;;;;1999.90;999.90;;;16.90;99.90;;;;;;5034788;28;20168;-69
2021/08/15 03:31:03;;;;;;;1999.90;999.90;;;17.00;99.90;;;;;;5034829;28;20268;-69
2021/08/15 03:33:29;;;;;;;1999.90;999.90;;;16.90;99.90;;;;;;5034605;28;20536;-68
2021/08/15 03:35:54;;;;;;;1999.90;999.90;;;16.90;99.90;;;;;;5034482;28;20206;-70
2021/08/15 03:38:20;;;;;;;1999.90;999.90;;;16.90;99.90;;;;;;5034590;28;20179;-70
2021/08/15 03:40:46;;;;;;;1999.90;999.90;;;16.90;99.90;;;;;;5034364;28;20197;-70
2021/08/15 03:43:11;;;;;;;1999.90;999.90;;;16.90;99.90;;;;;;5034394;28;20201;-70
2021/08/15 03:45:39;;;;;;;1999.90;999.90;;;16.80;99.90;;;;;;5034722;28;20684;-70
2021/08/15 03:48:05;;;;;;;1999.90;999.90;;;16.80;99.90;;;;;;5033836;28;20686;-70
2021/08/15 03:50:31;;;;;;;1999.90;999.90;;;16.80;99.90;;;;;;5034377;28;20411;-70
2021/08/15 03:52:57;;;;;;;1999.90;999.90;;;16.70;99.90;;;;;;5042997;28;20461;-70
2021/08/15 03:55:22;;;;;;;1999.90;999.90;;;16.80;99.90;;;;;;5026713;28;20615;-71
2021/08/15 03:57:48;;;;;;;1999.90;999.90;;;16.60;99.90;;;;;;5044303;28;20314;-71
2021/08/15 04:00:14;;;;;;;1999.90;999.90;;;16.60;99.90;;;;;;5043568;28;20202;-71
2021/08/15 04:02:40;;;;;;;1999.90;999.90;;;16.60;99.90;;;;;;5039149;28;20568;-70
2021/08/15 04:05:06;;;;;;;1999.90;999.90;;;16.60;99.90;;;;;;5033767;28;20407;-70
2021/08/15 04:07:31;;;;;;;1999.90;999.90;;;16.60;99.90;;;;;;5034073;28;20175;-70
2021/08/15 04:09:57;;;;;;;1999.90;999.90;;;16.60;99.90;;;;;;5038988;28;20414;-71
2021/08/15 04:12:23;;;;;;;1999.90;999.90;;;16.50;99.90;;;;;;5044540;28;20183;-70
2021/08/15 04:14:48;;;;;;;1999.90;999.90;;;16.50;99.90;;;;;;5043666;28;20254;-71
2021/08/15 04:17:16;;;;;;;1999.90;999.90;;;16.40;99.90;;;;;;5044065;28;20180;-71
2021/08/15 04:19:43;;;;;;;1999.90;999.90;;;16.50;99.90;;;;;;5045784;28;20543;-71
2021/08/15 04:22:08;;;;;;;1999.90;999.90;;;16.50;99.90;;;;;;5038406;28;20449;-71
2021/08/15 04:24:34;;;;;;;1999.90;999.90;;;16.50;99.90;;;;;;5033292;28;20900;-69
2021/08/15 04:26:59;;;;;;;1999.90;999.90;;;16.50;99.90;;;;;;5033664;28;20199;-70
2021/08/15 04:29:25;;;;;;;1999.90;999.90;;;16.50;99.90;;;;;;5033614;28;20171;-70
2021/08/15 04:31:50;;;;;;;1999.90;999.90;;;16.50;99.90;;;;;;5033575;28;20168;-70
2021/08/15 04:34:16;;;;;;;1999.90;999.90;;;16.50;99.90;;;;;;5033223;28;20177;-70
2021/08/15 04:36:42;;;;;;;1999.90;999.90;;;16.50;99.90;;;;;;5033755;28;20241;-70
2021/08/15 04:39:08;;;;;;;1999.90;999.90;;;16.40;99.90;;;;;;5033357;28;20178;-70
2021/08/15 04:41:33;;;;;;;1999.90;999.90;;;16.40;99.90;;;;;;5033403;28;20554;-70
2021/08/15 04:43:59;;;;;;;1999.90;999.90;;;16.40;99.90;;;;;;5033000;28;20413;-70
2021/08/15 04:46:24;;;;;;;1999.90;999.90;;;16.40;99.90;;;;;;5033335;28;20175;-70
2021/08/15 04:48:50;;;;;;;1999.90;999.90;;;16.50;99.90;;;;;;5033313;28;20228;-70
2021/08/15 04:51:16;;;;;;;1999.90;999.90;;;16.40;99.90;;;;;;5033213;28;20625;-70
2021/08/15 04:53:41;;;;;;;1999.90;999.90;;;16.40;99.90;;;;;;5033011;28;20279;-70
2021/08/15 04:56:07;;;;;;;1999.90;999.90;;;16.40;99.90;;;;;;5033012;28;20176;-70
2021/08/15 04:58:33;;;;;;;1999.90;999.90;;;16.50;99.90;;;;;;5032267;28;20212;-69
2021/08/15 05:00:59;;;;;;;1999.90;999.90;;;16.60;99.90;;;;;;5032941;28;20245;-70
2021/08/15 05:03:24;;;;;;;1999.90;999.90;;;16.60;99.90;;;;;;5032855;28;20503;-69
2021/08/15 05:05:50;;;;;;;1999.90;999.90;;;16.60;99.90;;;;;;5032729;28;20813;-69
2021/08/15 05:08:16;;;;;;;1999.90;999.90;;;16.60;99.90;;;;;;5032844;28;20570;-69
2021/08/15 05:10:42;;;;;;;1999.90;999.90;;;16.80;99.90;;;;;;5032909;28;20166;-70
2021/08/15 05:13:08;;;;;;;1999.90;999.90;;;16.80;99.90;;;;;;5032935;28;20624;-70
2021/08/15 05:15:34;;;;;;;1999.90;999.90;;;16.80;99.90;;;;;;5032446;28;20415;-70
2021/08/15 05:17:59;;;;;;;1999.90;999.90;;;16.80;99.90;;;;;;5032740;28;20224;-70
2021/08/15 05:20:25;;;;;;;1999.90;999.90;;;16.90;99.90;;;;;;5032545;28;20192;-70
2021/08/15 05:22:51;;;;;;;1999.90;999.90;;;17.00;99.90;;;;;;5032477;28;20198;-70
2021/08/15 05:25:16;;;;;;;1999.90;999.90;;;17.00;99.90;;;;;;5032343;28;20195;-70
2021/08/15 05:27:42;;;;;;;1999.90;999.90;;;17.00;99.90;;;;;;5032587;28;20237;-70
2021/08/15 05:30:08;;;;;;;1999.90;999.90;;;17.00;99.90;;;;;;5032494;28;20978;-70
2021/08/15 05:32:34;;;;;;;1999.90;999.90;;;16.90;99.90;;;;;;5032349;28;20197;-70
2021/08/15 05:34:59;;;;;;;1999.90;999.90;;;17.00;99.90;;;;;;5032191;28;20407;-69
2021/08/15 05:37:25;;;;;;;1999.90;999.90;;;17.10;99.90;;;;;;5032350;28;20171;-70
2021/08/15 05:39:50;;;;;;;1999.90;999.90;;;17.20;99.90;;;;;;5032234;28;20257;-69
2021/08/15 05:42:17;;;;;;;1999.90;999.90;;;17.20;99.90;;;;;;5032260;28;20259;-69
2021/08/15 05:44:42;;;;;;;1999.90;999.90;;;17.30;99.90;;;;;;5032131;28;20178;-69
2021/08/15 05:47:08;;;;;;;1999.90;999.90;;;17.30;99.90;;;;;;5032247;28;20406;-69
2021/08/15 05:49:34;;;;;;;1999.90;999.90;;;17.40;99.90;;;;;;5032287;28;20267;-69
2021/08/15 05:52:00;;;;;;;1999.90;999.90;;;17.40;99.90;;;;;;5014376;28;20537;-70
2021/08/15 05:54:26;;;;;;;1999.90;999.90;;;17.50;99.90;;;;;;5031668;28;20522;-70
2021/08/15 05:56:51;;;;;;;1999.90;999.90;;;17.60;99.90;;;;;;5032087;28;20177;-70
2021/08/15 05:59:17;;;;;;;1999.90;999.90;;;17.60;99.90;;;;;;5032056;28;20681;-70
2021/08/15 06:01:42;;;;;;;1999.90;999.90;;;17.70;99.90;;;;;;5032037;28;20174;-70
2021/08/15 06:04:08;;;;;;;1999.90;999.90;;;17.80;99.90;;;;;;5031723;28;20195;-70
2021/08/15 06:06:34;;;;;;;1999.90;999.90;;;17.90;99.90;;;;;;5031857;28;20208;-70
2021/08/15 06:08:59;;;;;;;1999.90;999.90;;;18.00;99.90;;;;;;5031971;28;20230;-70
2021/08/15 06:11:25;;;;;;;1999.90;999.90;;;18.00;99.90;;;;;;5031895;28;20202;-70
2021/08/15 06:13:51;;;;;;;1999.90;999.90;;;18.10;99.90;;;;;;5031631;28;20202;-70
2021/08/15 06:16:17;;;;;;;1999.90;999.90;;;18.30;99.90;;;;;;5031776;28;20182;-70
2021/08/15 06:18:43;;;;;;;1999.90;999.90;;;18.40;99.90;;;;;;5031892;28;20410;-70
2021/08/15 06:21:08;;;;;;;1999.90;999.90;;;18.60;99.90;;;;;;5031709;28;20210;-70
2021/08/15 06:23:34;;;;;;;1999.90;999.90;;;18.80;99.90;;;;;;5041783;28;20196;-71
2021/08/15 06:26:01;;;;;;;1999.90;999.90;;;18.90;99.90;;;;;;5036749;28;20170;-70
2021/08/15 06:28:27;;;;;;;1999.90;999.90;;;19.00;99.90;;;;;;5031945;28;20181;-70
2021/08/15 06:30:52;;;;;;;1999.90;999.90;;;19.20;99.90;;;;;;5031760;28;20801;-70
2021/08/15 06:33:18;;;;;;;1999.90;999.90;;;19.20;99.90;;;;;;5031673;28;20194;-69
2021/08/15 06:35:43;;;;;;;1999.90;999.90;;;19.30;99.90;;;;;;5031408;28;20184;-70
2021/08/15 06:38:09;;;;;;;1999.90;999.90;;;19.30;99.90;;;;;;5031704;28;20164;-70
2021/08/15 06:40:34;;;;;;;1999.90;999.90;;;19.40;99.90;;;;;;5031596;28;20203;-70
2021/08/15 06:43:13;;;;;;;1999.90;999.90;;;19.40;99.90;;;;;;5031599;28;20219;-70
2021/08/15 06:45:39;;;;;;;1999.90;999.90;;;19.50;99.90;;;;;;5031367;28;20173;-70
2021/08/15 06:48:05;;;;;;;1999.90;999.90;;;19.70;99.90;;;;;;5031558;28;20883;-71
2021/08/15 06:50:32;;;;;;;1999.90;999.90;;;19.80;99.90;;;;;;5031474;28;20395;-71
2021/08/15 06:52:57;;;;;;;1999.90;999.90;;;20.00;99.90;;;;;;5031388;28;20457;-71
2021/08/15 06:55:23;;;;;;;1999.90;999.90;;;20.10;99.90;;;;;;5032087;28;20410;-69
2021/08/15 06:57:49;;;;;;;1999.90;999.90;;;20.30;99.90;;;;;;5047418;28;20176;-71
2021/08/15 07:00:15;;;;;;;1999.90;999.90;;;20.50;99.90;;;;;;5048596;28;20217;-71
2021/08/15 07:02:43;;;;;;;1999.90;999.90;;;20.40;99.90;;;;;;5032149;28;20223;-71
2021/08/15 07:05:10;;;;;;;1999.90;999.90;;;20.60;99.90;;;;;;5049597;28;20404;-71
2021/08/15 07:07:36;;;;;;;1999.90;999.90;;;20.60;99.90;;;;;;5050106;28;20409;-71
2021/08/15 07:10:03;;;;;;;1999.90;999.90;;;20.60;99.90;;;;;;5049874;28;20435;-71
2021/08/15 07:12:29;;;;;;;1999.90;999.90;;;20.60;99.90;;;;;;5031955;28;20430;-71
2021/08/15 07:14:54;;;;;;;1999.90;999.90;;;20.70;99.90;;;;;;5048489;28;20482;-71
2021/08/15 07:17:20;;;;;;;1999.90;999.90;;;20.80;99.90;;;;;;5048851;28;20562;-71
2021/08/15 07:19:46;;;;;;;1999.90;999.90;;;20.90;99.90;;;;;;5048897;28;20206;-70
2021/08/15 07:22:11;;;;;;;1999.90;999.90;;;21.10;99.90;;;;;;5049575;28;20183;-70
2021/08/15 07:24:37;;;;;;;1999.90;999.90;;;21.10;99.90;;;;;;5052455;28;20180;-71
2021/08/15 07:27:03;;;;;;;1999.90;999.90;;;21.20;99.90;;;;;;5035436;28;20179;-71
2021/08/15 07:29:28;;;;;;;1999.90;999.90;;;21.20;99.90;;;;;;5035372;28;20180;-70
2021/08/15 07:31:54;;;;;;;1999.90;999.90;;;21.30;99.90;;;;;;5052010;28;20180;-71
2021/08/15 07:34:20;;;;;;;1999.90;999.90;;;21.40;99.90;;;;;;5052113;28;20188;-70
2021/08/15 07:36:46;;;;;;;1999.90;999.90;;;21.60;99.90;;;;;;5052501;28;20208;-71
2021/08/15 07:39:13;;;;;;;1999.90;999.90;;;21.80;99.90;;;;;;5052615;28;20437;-70
2021/08/15 07:41:38;;;;;;;1999.90;999.90;;;21.90;99.90;;;;;;5034964;28;20213;-71
2021/08/15 07:44:04;;;;;;;1999.90;999.90;;;22.00;99.90;;;;;;5053419;28;20486;-70
2021/08/15 07:46:30;;;;;;;1999.90;999.90;;;22.10;99.90;;;;;;5035612;28;20171;-70
2021/08/15 07:48:57;;;;;;;1999.90;999.90;;;22.20;99.90;;;;;;5052357;28;20421;-71
2021/08/15 07:51:25;;;;;;;1999.90;999.90;;;22.30;99.90;;;;;;5043220;28;20434;-70
2021/08/15 07:53:51;;;;;;;1999.90;999.90;;;22.40;99.90;;;;;;5033983;28;20455;-70
2021/08/15 07:56:17;;;;;;;1999.90;999.90;;;22.60;99.90;;;;;;5034269;28;20380;-70
2021/08/15 07:58:42;;;;;;;1999.90;999.90;;;22.70;99.90;;;;;;5034189;28;20415;-70
2021/08/15 08:01:08;;;;;;;1999.90;999.90;;;22.80;99.90;;;;;;5034131;28;20199;-70
2021/08/15 08:03:34;;;;;;;1999.90;999.90;;;22.90;99.90;;;;;;5033938;28;20712;-70
2021/08/15 08:06:00;;;;;;;1999.90;999.90;;;22.90;99.90;;;;;;5034047;28;20183;-70
2021/08/15 08:08:25;;;;;;;1999.90;999.90;;;23.00;99.90;;;;;;5034056;28;20178;-70
2021/08/15 08:10:54;;;;;;;1999.90;999.90;;;23.00;99.90;;;;;;5033997;28;20180;-70
2021/08/15 08:13:21;;;;;;;1999.90;999.90;;;23.10;99.90;;;;;;5033925;28;20408;-70
2021/08/15 08:15:46;;;;;;;1999.90;999.90;;;23.20;99.90;;;;;;5033578;28;20433;-69
2021/08/15 08:18:12;;;;;;;1999.90;999.90;;;23.30;99.90;;;;;;5033840;28;20391;-70
2021/08/15 08:20:38;;;;;;;1999.90;999.90;;;23.50;99.90;;;;;;5033856;28;20626;-70
2021/08/15 08:23:07;;;;;;;1999.90;999.90;;;23.70;99.90;;;;;;5033847;28;20192;-70
2021/08/15 08:25:33;;;;;;;1999.90;999.90;;;23.90;99.90;;;;;;5033343;28;20774;-71
2021/08/15 08:27:59;;;;;;;1999.90;999.90;;;24.20;99.90;;;;;;5013419;28;20405;-70
2021/08/15 08:30:25;;;;;;;1999.90;999.90;;;24.50;99.90;;;;;;5013833;28;20407;-71
2021/08/15 08:32:51;;;;;;;1999.90;999.90;;;24.70;99.90;;;;;;5013696;28;20223;-70
2021/08/15 08:35:16;;;;;;;1999.90;999.90;;;24.80;99.90;;;;;;5013412;28;20383;-69
2021/08/15 08:37:44;;;;;;;1999.90;999.90;;;25.00;99.90;;;;;;5013743;28;20466;-70
2021/08/15 08:40:11;;;;;;;1999.90;999.90;;;25.10;99.90;;;;;;5013637;28;20263;-70
2021/08/15 08:42:37;;;;;;;1999.90;999.90;;;25.20;99.90;;;;;;5013595;28;20482;-70
2021/08/15 08:45:03;;;;;;;1999.90;999.90;;;25.20;99.90;;;;;;5013329;28;20745;-70
2021/08/15 08:47:30;;;;;;;1999.90;999.90;;;25.20;99.90;;;;;;5013548;28;20165;-70
2021/08/15 08:49:58;;;;;;;1999.90;999.90;;;25.40;99.90;;;;;;5013490;28;20422;-71
2021/08/15 08:52:30;;;;;;;1999.90;999.90;;;25.60;99.90;;;;;;5013356;28;20423;-71
2021/08/15 08:55:01;;;;;;;1999.90;999.90;;;25.80;99.90;;;;;;5013158;28;20451;-71
2021/08/15 08:57:28;;;;;;;1999.90;999.90;;;25.90;99.90;;;;;;5013338;28;20735;-71
2021/08/15 08:59:54;;;;;;;1999.90;999.90;;;25.90;99.90;;;;;;5013468;28;20820;-71
2021/08/15 09:02:20;;;;;;;1999.90;999.90;;;26.00;99.90;;;;;;5013160;28;20516;-71
2021/08/15 09:04:46;;;;;;;1999.90;999.90;;;26.00;99.90;;;;;;5013048;28;20412;-71
2021/08/15 09:07:19;;;;;;;1999.90;999.90;;;26.10;99.90;;;;;;5013125;28;20438;-71
2021/08/15 09:09:56;;;;;;;1999.90;999.90;;;26.20;99.90;;;;;;5013212;28;20180;-71
2021/08/15 09:12:40;;;;;;;1999.90;999.90;;;26.20;99.90;;;;;;5012944;28;20430;-71
2021/08/15 09:15:20;;;;;;;1999.90;999.90;;;26.30;99.90;;;;;;5012784;28;20420;-71
2021/08/15 09:17:47;;;;;;;1999.90;999.90;;;26.40;99.90;;;;;;5012964;28;20398;-71
2021/08/15 09:20:36;;;;;;;1999.90;999.90;;;26.40;99.90;;;;;;5012826;28;20444;-71
2021/08/15 09:23:28;;;;;;;1999.90;999.90;;;26.60;99.90;;;;;;5012431;28;20482;-71
2021/08/15 09:26:18;;;;;;;1999.90;999.90;;;26.70;99.90;;;;;;5012581;28;20411;-69
2021/08/15 09:28:46;;;;;;;1999.90;999.90;;;26.80;99.90;;;;;;5012820;28;20416;-69
2021/08/15 09:31:21;;;;;;;1999.90;999.90;;;26.80;99.90;;;;;;5012798;28;20778;-70
2021/08/15 09:33:47;;;;;;;1999.90;999.90;;;26.80;99.90;;;;;;5012379;28;20998;-70
2021/08/15 09:36:12;;;;;;;1999.90;999.90;;;26.70;99.90;;;;;;5012560;28;20404;-70
2021/08/15 09:38:43;;;;;;;1999.90;999.90;;;26.80;99.90;;;;;;5012619;28;20939;-72
2021/08/15 09:41:26;;;;;;;1999.90;999.90;;;26.90;99.90;;;;;;5011738;28;20208;-69
2021/08/15 09:44:19;;;;;;;1999.90;999.90;;;27.10;99.90;;;;;;4992300;28;20439;-70
2021/08/15 09:47:06;;;;;;;1999.90;999.90;;;27.20;99.90;;;;;;4992894;28;20475;-70
2021/08/15 09:49:40;;;;;;;1999.90;999.90;;;27.20;99.90;;;;;;4992382;28;20820;-69
2021/08/15 09:52:09;;;;;;;1999.90;999.90;;;27.30;99.90;;;;;;4992555;28;20439;-70
2021/08/15 09:54:36;;;;;;;1999.90;999.90;;;27.30;99.90;;;;;;4992557;28;20509;-71
2021/08/15 09:57:04;;;;;;;1999.90;999.90;;;27.20;99.90;;;;;;4992401;28;20387;-71
2021/08/15 09:59:36;;;;;;;1999.90;999.90;;;27.10;99.90;;;;;;4992400;28;20379;-71
2021/08/15 10:02:02;;;;;;;1999.90;999.90;;;27.10;99.90;;;;;;4992209;28;20932;-70
2021/08/15 10:04:28;;;;;;;1999.90;999.90;;;27.10;99.90;;;;;;4991745;28;20869;-70
2021/08/15 10:06:56;;;;;;;1999.90;999.90;;;27.30;99.90;;;;;;4992232;28;20401;-71
2021/08/15 10:09:23;;;;;;;1999.90;999.90;;;27.30;99.90;;;;;;4992259;28;20415;-71
2021/08/15 10:11:49;;;;;;;1999.90;999.90;;;27.30;99.90;;;;;;4992336;28;20379;-70
2021/08/15 10:14:15;;;;;;;1999.90;999.90;;;27.30;99.90;;;;;;4991938;28;20892;-70
2021/08/15 10:16:55;;;;;;;1999.90;999.90;;;27.50;99.90;;;;;;4992183;28;20409;-70
2021/08/15 10:19:31;;;;;;;1999.90;999.90;;;27.70;99.90;;;;;;4992208;28;20409;-70
2021/08/15 10:21:59;;;;;;;1999.90;999.90;;;27.80;99.90;;;;;;4992097;28;20390;-70
2021/08/15 10:24:47;;;;;;;1999.90;999.90;;;27.90;99.90;;;;;;4991754;28;20430;-70
2021/08/15 10:27:40;;;;;;;1999.90;999.90;;;28.00;99.90;;;;;;4991953;28;20466;-70
2021/08/15 10:30:32;;;;;;;1999.90;999.90;;;27.90;99.90;;;;;;4992294;28;20409;-71
2021/08/15 10:32:57;;;;;;;1999.90;999.90;;;27.60;99.90;;;;;;4991986;28;20934;-71
2021/08/15 10:35:26;;;;;;;1999.90;999.90;;;27.50;99.90;;;;;;4991777;28;20401;-71
2021/08/15 10:38:04;;;;;;;1999.90;999.90;;;27.50;99.90;;;;;;4992034;28;20542;-70
2021/08/15 10:40:39;;;;;;;1999.90;999.90;;;27.80;99.90;;;;;;4991962;28;20888;-70
2021/08/15 10:43:09;;;;;;;1999.90;999.90;;;28.10;99.90;;;;;;4992046;28;20432;-71
2021/08/15 10:45:36;;;;;;;1999.90;999.90;;;28.20;99.90;;;;;;4991084;28;20460;-71
2021/08/15 10:48:04;;;;;;;1999.90;999.90;;;28.30;99.90;;;;;;4991767;28;20405;-70
2021/08/15 10:50:42;;;;;;;1999.90;999.90;;;28.30;99.90;;;;;;4991565;28;20918;-70
2021/08/15 10:53:29;;;;;;;1999.90;999.90;;;28.70;99.90;;;;;;4991142;28;20476;-70
2021/08/15 10:56:08;;;;;;;1999.90;999.90;;;28.70;99.90;;;;;;4991658;28;20408;-70
2021/08/15 10:58:42;;;;;;;1999.90;999.90;;;28.90;99.90;;;;;;4990264;28;20454;-70
2021/08/15 11:01:13;;;;;;;1999.90;999.90;;;29.00;99.90;;;;;;4994558;28;20793;-70
2021/08/15 11:03:44;;;;;;;1999.90;999.90;;;29.10;99.90;;;;;;4994241;28;20479;-71
2021/08/15 11:06:45;;;;;;;1999.90;999.90;;;28.90;99.90;;;;;;4994161;28;20405;-70
2021/08/15 11:09:11;;;;;;;1999.90;999.90;;;28.70;99.90;;;;;;4982700;28;20416;-70
2021/08/15 11:12:04;;;;;;;1999.90;999.90;;;28.50;99.90;;;;;;4993976;28;20421;-70
2021/08/15 11:14:30;;;;;;;1999.90;999.90;;;28.60;99.90;;;;;;4994133;28;21102;-70
2021/08/15 11:17:09;;;;;;;1999.90;999.90;;;28.60;99.90;;;;;;4994436;28;20495;-70
2021/08/15 11:19:36;;;;;;;1999.90;999.90;;;28.80;99.90;;;;;;4993641;28;20173;-70
2021/08/15 11:22:09;;;;;;;1999.90;999.90;;;29.30;99.90;;;;;;4994134;28;20922;-71
2021/08/15 11:24:45;;;;;;;1999.90;999.90;;;29.50;99.90;;;;;;4993864;28;20405;-70
2021/08/15 11:27:10;;;;;;;1999.90;999.90;;;29.80;99.90;;;;;;4993480;28;20917;-70
2021/08/15 11:29:38;;;;;;;1999.90;999.90;;;30.10;99.90;;;;;;4993745;28;20401;-70
2021/08/15 11:32:04;;;;;;;1999.90;999.90;;;30.10;99.90;;;;;;4993917;28;20197;-69
2021/08/15 11:34:30;;;;;;;1999.90;999.90;;;30.00;99.90;;;;;;4992733;28;20431;-70
2021/08/15 11:37:05;;;;;;;1999.90;999.90;;;30.20;99.90;;;;;;4993797;28;20405;-70
2021/08/15 11:39:36;;;;;;;1999.90;999.90;;;30.30;99.90;;;;;;4993502;28;20165;-70
2021/08/15 11:42:05;;;;;;;1999.90;999.90;;;30.30;99.90;;;;;;4993226;28;20405;-71
2021/08/15 11:44:54;;;;;;;1999.90;999.90;;;30.10;99.90;;;;;;4993424;28;20429;-70
2021/08/15 11:47:22;;;;;;;1999.90;999.90;;;30.00;99.90;;;;;;4993422;28;20411;-70
2021/08/15 11:49:47;;;;;;;1999.90;999.90;;;29.70;99.90;;;;;;4993397;28;20556;-70
2021/08/15 11:52:22;;;;;;;1999.90;999.90;;;29.40;99.90;;;;;;4993265;28;20474;-70
2021/08/15 11:54:49;;;;;;;1999.90;999.90;;;29.40;99.90;;;;;;4993054;28;20185;-70
2021/08/15 11:57:15;;;;;;;1999.90;999.90;;;29.50;99.90;;;;;;4993202;28;20550;-70
2021/08/15 11:59:42;;;;;;;1999.90;999.90;;;29.70;99.90;;;;;;4992923;28;20530;-70
2021/08/15 12:02:21;;;;;;;1999.90;999.90;;;29.90;99.90;;;;;;4993304;28;20169;-70